Time;durP1;ratioP1;P1;durP2;ratioP2;P2;SDS_P1;SDS_P2;PMS_P1;PMS_P2;Temp;Humidity;BMP_temperature;BMP_pressure;BME280_temperature;BME280_humidity;BME280_pressure;Samples;Min_cycle;Max_cycle;Signal;HPM_P1;HPM_P2
2022/04/29 00:01:22;;;;;;;14.07;13.02;;;;;;;-141.48;100.00;69781.59;5215731;28;20022;-83
2022/04/29 00:03:53;;;;;;;13.00;12.02;;;;;;;-141.48;100.00;69781.59;5216716;28;20026;-84
2022/04/29 00:06:25;;;;;;;14.80;13.65;;;;;;;-141.48;100.00;69781.59;5216137;28;20091;-83
2022/04/29 00:08:55;;;;;;;14.50;13.05;;;;;;;-141.48;100.00;69781.59;5216913;28;20566;-82
2022/04/29 00:11:27;;;;;;;21.42;11.57;;;;;;;-141.48;100.00;69781.59;5205792;28;20033;-80
2022/04/29 00:13:58;;;;;;;16.88;13.63;;;;;;;-141.48;100.00;69781.59;5222465;28;20510;-79
2022/04/29 00:16:29;;;;;;;13.88;12.65;;;;;;;-141.48;100.00;69781.59;5224201;28;20025;-81
2022/04/29 00:18:59;;;;;;;14.00;12.98;;;;;;;-141.48;100.00;69781.59;5219889;28;20064;-82
2022/04/29 00:21:30;;;;;;;14.00;11.40;;;;;;;-141.48;100.00;69781.59;5215536;28;20020;-84
2022/04/29 00:24:00;;;;;;;12.20;11.18;;;;;;;-141.48;100.00;69781.59;5218085;28;20113;-84
2022/04/29 00:26:31;;;;;;;14.63;13.30;;;;;;;-141.48;100.00;69781.59;5219639;28;20030;-80
2022/04/29 00:29:02;;;;;;;12.93;11.68;;;;;;;-141.48;100.00;69781.59;5219865;28;20029;-83
2022/04/29 00:31:34;;;;;;;13.57;12.18;;;;;;;-141.48;100.00;69781.59;5223163;28;20021;-84
2022/04/29 00:34:05;;;;;;;14.50;13.20;;;;;;;-141.48;100.00;69781.59;5223668;28;20037;-84
2022/04/29 00:36:35;;;;;;;13.52;12.43;;;;;;;-141.48;100.00;69781.59;5218024;28;20025;-81
2022/04/29 00:39:06;;;;;;;21.33;15.23;;;;;;;-141.48;100.00;69781.59;5201780;28;20021;-84
2022/04/29 00:41:37;;;;;;;15.70;13.75;;;;;;;-141.48;100.00;69781.59;5217970;28;20018;-84
2022/04/29 00:44:10;;;;;;;13.07;11.93;;;;;;;-141.48;100.00;69781.59;5219226;28;20081;-81
2022/04/29 00:46:42;;;;;;;15.73;14.27;;;;;;;-141.48;100.00;69781.59;5219111;28;20041;-83
2022/04/29 00:49:15;;;;;;;13.57;12.35;;;;;;;-141.48;100.00;69781.59;5218524;28;20816;-84
2022/04/29 00:51:51;;;;;;;13.75;12.60;;;;;;;-141.48;100.00;69781.59;5218061;28;20503;-83
2022/04/29 00:54:34;;;;;;;14.10;12.85;;;;;;;-141.48;100.00;69781.59;5218685;28;20037;-84
2022/04/29 00:57:14;;;;;;;14.02;12.82;;;;;;;-141.48;100.00;69781.59;5201390;28;20179;-82
2022/04/29 00:59:52;;;;;;;13.73;12.65;;;;;;;-141.48;100.00;69781.59;5218989;28;20025;-82
2022/04/29 01:02:23;;;;;;;14.95;13.38;;;;;;;-141.48;100.00;69781.59;5219062;28;20048;-80
2022/04/29 01:05:02;;;;;;;16.38;12.32;;;;;;;-141.48;100.00;69781.59;5217592;28;20033;-84
2022/04/29 01:07:34;;;;;;;19.17;12.07;;;;;;;-141.48;100.00;69781.59;5218783;28;20036;-84
2022/04/29 01:10:06;;;;;;;19.27;11.45;;;;;;;-141.48;100.00;69781.59;5218442;28;20691;-84
2022/04/29 01:12:38;;;;;;;12.80;11.32;;;;;;;-141.48;100.00;69781.59;5220037;28;20025;-84
2022/04/29 01:15:15;;;;;;;15.32;13.52;;;;;;;-141.48;100.00;69781.59;5220317;28;20098;-83
2022/04/29 01:17:47;;;;;;;13.27;11.80;;;;;;;-141.48;100.00;69781.59;5183002;28;1262779;-79
2022/04/29 01:20:20;;;;;;;14.18;13.07;;;;;;;-141.48;100.00;69781.59;5224672;28;20033;-80
2022/04/29 01:22:50;;;;;;;13.60;12.32;;;;;;;-141.48;100.00;69781.59;5219686;28;20025;-82
2022/04/29 01:25:21;;;;;;;19.95;11.95;;;;;;;-141.48;100.00;69781.59;5219150;28;20103;-83
2022/04/29 01:27:52;;;;;;;12.88;11.65;;;;;;;-141.48;100.00;69781.59;5217469;28;20029;-83
2022/04/29 01:30:23;;;;;;;14.68;12.32;;;;;;;-141.48;100.00;69781.59;5219516;28;20029;-80
2022/04/29 01:32:55;;;;;;;11.70;10.90;;;;;;;-141.48;100.00;69781.59;5217403;28;20018;-84
2022/04/29 01:35:25;;;;;;;13.32;11.90;;;;;;;-141.48;100.00;69781.59;5217807;28;20163;-84
2022/04/29 01:37:56;;;;;;;19.20;13.60;;;;;;;-141.48;100.00;69781.59;5218707;28;20483;-84
2022/04/29 01:40:27;;;;;;;13.65;12.63;;;;;;;-141.48;100.00;69781.59;5218648;28;20399;-81
2022/04/29 01:42:58;;;;;;;16.40;10.77;;;;;;;-141.48;100.00;69781.59;5218337;28;20033;-84
2022/04/29 01:45:29;;;;;;;12.70;11.57;;;;;;;-141.48;100.00;69781.59;5218428;28;20535;-83
2022/04/29 01:47:59;;;;;;;20.27;12.93;;;;;;;-141.48;100.00;69781.59;5218613;28;20025;-81
2022/04/29 01:50:30;;;;;;;12.00;10.98;;;;;;;-141.48;100.00;69781.59;5218259;28;20022;-84
2022/04/29 01:53:00;;;;;;;10.43;9.52;;;;;;;-141.48;100.00;69781.59;5218412;28;20022;-84
2022/04/29 01:55:31;;;;;;;11.63;10.35;;;;;;;-141.48;100.00;69781.59;5218696;28;20033;-83
2022/04/29 01:58:02;;;;;;;22.90;12.60;;;;;;;-141.48;100.00;69781.59;5218112;28;20032;-81
2022/04/29 02:00:32;;;;;;;14.80;13.50;;;;;;;-141.48;100.00;69781.59;5217448;28;20025;-82
2022/04/29 02:03:03;;;;;;;19.48;12.52;;;;;;;-141.48;100.00;69781.59;5218572;28;20021;-84
2022/04/29 02:05:34;;;;;;;22.23;11.60;;;;;;;-141.48;100.00;69781.59;5217368;28;20060;-84
2022/04/29 02:08:05;;;;;;;11.60;10.55;;;;;;;-141.48;100.00;69781.59;5218612;28;20093;-80
2022/04/29 02:10:36;;;;;;;13.10;12.00;;;;;;;-141.48;100.00;69781.59;5218177;28;20075;-83
2022/04/29 02:13:06;;;;;;;11.95;10.90;;;;;;;-141.48;100.00;69781.59;5217216;28;20030;-84
2022/04/29 02:15:37;;;;;;;12.95;11.63;;;;;;;-141.48;100.00;69781.59;5218619;28;20053;-81
2022/04/29 02:18:08;;;;;;;14.98;11.88;;;;;;;-141.48;100.00;69781.59;5241457;22;20107;-60
2022/04/29 02:20:38;;;;;;;12.20;11.18;;;;;;;-141.48;100.00;69781.59;5227700;28;20027;-60
2022/04/29 02:23:08;;;;;;;22.42;11.60;;;;;;;-141.48;100.00;69781.59;5239035;28;20031;-61
2022/04/29 02:25:39;;;;;;;12.18;10.93;;;;;;;-141.48;100.00;69781.59;5241994;28;20503;-61
2022/04/29 02:28:09;;;;;;;12.93;11.52;;;;;;;-141.48;100.00;69781.59;5225673;28;20063;-59
2022/04/29 02:30:40;;;;;;;15.13;13.20;;;;;;;-141.48;100.00;69781.59;5225632;28;20025;-59
2022/04/29 02:33:11;;;;;;;13.25;12.32;;;;;;;-141.48;100.00;69781.59;5225177;28;20544;-59
2022/04/29 02:35:41;;;;;;;14.45;11.30;;;;;;;-141.48;100.00;69781.59;5225366;28;20397;-59
2022/04/29 02:38:12;;;;;;;14.07;12.77;;;;;;;-141.48;100.00;69781.59;5242091;28;20020;-61
2022/04/29 02:40:42;;;;;;;13.15;11.80;;;;;;;-141.48;100.00;69781.59;5241894;28;20029;-60
2022/04/29 02:43:13;;;;;;;14.18;12.85;;;;;;;-141.48;100.00;69781.59;5225173;28;20021;-59
2022/04/29 02:45:44;;;;;;;14.48;12.82;;;;;;;-141.48;100.00;69781.59;5224912;28;20052;-58
2022/04/29 02:48:15;;;;;;;12.88;11.68;;;;;;;-141.48;100.00;69781.59;5241843;28;20059;-61
2022/04/29 02:50:45;;;;;;;10.75;10.02;;;;;;;-141.48;100.00;69781.59;5225279;28;20021;-59
2022/04/29 02:53:16;;;;;;;14.88;12.77;;;;;;;-141.48;100.00;69781.59;5241552;28;20102;-59
2022/04/29 02:55:46;;;;;;;17.77;10.23;;;;;;;-141.48;100.00;69781.59;5241787;28;20056;-58
2022/04/29 02:58:17;;;;;;;13.38;12.25;;;;;;;-141.48;100.00;69781.59;5241745;28;20025;-61
2022/04/29 03:00:47;;;;;;;13.65;12.60;;;;;;;-141.48;100.00;69781.59;5225935;28;20037;-59
2022/04/29 03:03:18;;;;;;;14.90;12.07;;;;;;;-141.48;100.00;69781.59;5225726;28;20017;-59
2022/04/29 03:05:48;;;;;;;11.65;10.52;;;;;;;-141.48;100.00;69781.59;5242296;28;20028;-59
2022/04/29 03:08:19;;;;;;;14.75;13.32;;;;;;;-141.48;100.00;69781.59;5225663;28;20366;-57
2022/04/29 03:10:49;;;;;;;11.80;10.60;;;;;;;-141.48;100.00;69781.59;5224656;28;20017;-59
2022/04/29 03:13:20;;;;;;;15.15;12.00;;;;;;;-141.48;100.00;69781.59;5241120;28;20085;-61
2022/04/29 03:15:50;;;;;;;12.57;11.57;;;;;;;-141.48;100.00;69781.59;5241254;28;20024;-58
2022/04/29 03:18:21;;;;;;;13.65;12.60;;;;;;;-141.48;100.00;69781.59;5241235;28;20035;-58
2022/04/29 03:20:56;;;;;;;14.05;12.68;;;;;;;-141.48;100.00;69781.59;5241370;28;20044;-59
2022/04/29 03:23:27;;;;;;;19.98;13.15;;;;;;;-141.48;100.00;69781.59;5241003;28;20021;-61
2022/04/29 03:25:57;;;;;;;16.65;12.95;;;;;;;-141.48;100.00;69781.59;5241196;28;20499;-58
2022/04/29 03:28:28;;;;;;;17.95;11.82;;;;;;;-141.48;100.00;69781.59;5241232;28;20050;-59
2022/04/29 03:30:59;;;;;;;12.00;11.10;;;;;;;-141.48;100.00;69781.59;5241169;28;20032;-59
2022/04/29 03:33:30;;;;;;;16.80;12.73;;;;;;;-141.48;100.00;69781.59;5224271;28;20031;-58
2022/04/29 03:36:00;;;;;;;12.63;11.55;;;;;;;-141.48;100.00;69781.59;5240912;28;20500;-59
2022/04/29 03:38:31;;;;;;;14.52;12.30;;;;;;;-141.48;100.00;69781.59;5241178;28;20118;-59
2022/04/29 03:41:01;;;;;;;24.95;13.40;;;;;;;-141.48;100.00;69781.59;5240981;28;20079;-60
2022/04/29 03:43:32;;;;;;;12.90;11.90;;;;;;;-141.48;100.00;69781.59;5223878;28;20024;-59
2022/04/29 03:46:03;;;;;;;13.10;11.75;;;;;;;-141.48;100.00;69781.59;5240895;28;20033;-61
2022/04/29 03:49:35;;;;;;;11.23;10.40;;;;;;;-141.48;100.00;69781.59;5224143;28;20021;-58
2022/04/29 03:51:23;;;;;;;17.30;11.95;;;;;;;-141.48;100.00;69781.59;5225226;28;20037;-57
2022/04/29 03:53:54;;;;;;;13.70;12.13;;;;;;;-141.48;100.00;69781.59;5240364;28;20031;-60
2022/04/29 03:56:25;;;;;;;12.38;11.48;;;;;;;-141.48;100.00;69781.59;5240809;28;20035;-59
2022/04/29 03:58:55;;;;;;;25.05;13.38;;;;;;;-141.48;100.00;69781.59;5240368;28;20107;-57
2022/04/29 04:01:27;;;;;;;15.93;11.75;;;;;;;-141.48;100.00;69781.59;5240776;28;20108;-58
2022/04/29 04:03:58;;;;;;;14.30;12.90;;;;;;;-141.48;100.00;69781.59;5223799;28;20032;-58
2022/04/29 04:09:22;;;;;;;12.83;11.73;;;;;;;-141.48;100.00;69781.59;5225866;28;20099;-60
2022/04/29 04:11:53;;;;;;;12.20;11.07;;;;;;;-141.48;100.00;69781.59;5240862;28;20036;-61
2022/04/29 04:14:23;;;;;;;11.98;11.10;;;;;;;-141.48;100.00;69781.59;5223664;28;20406;-60
2022/04/29 04:16:54;;;;;;;13.55;12.27;;;;;;;-141.48;100.00;69781.59;5224007;28;20662;-59
2022/04/29 04:19:24;;;;;;;12.63;11.48;;;;;;;-141.48;100.00;69781.59;5240681;28;20040;-59
2022/04/29 04:21:55;;;;;;;21.55;13.73;;;;;;;-141.48;100.00;69781.59;5223817;28;20304;-60
2022/04/29 04:24:25;;;;;;;13.93;12.32;;;;;;;-141.48;100.00;69781.59;5240312;28;20485;-59
2022/04/29 04:26:56;;;;;;;18.05;11.48;;;;;;;-141.48;100.00;69781.59;5240708;28;20032;-60
2022/04/29 04:29:26;;;;;;;13.93;12.80;;;;;;;-141.48;100.00;69781.59;5223939;28;20496;-57
2022/04/29 04:31:57;;;;;;;16.42;13.60;;;;;;;-141.48;100.00;69781.59;5240665;28;20025;-59
2022/04/29 04:37:17;;;;;;;12.45;11.32;;;;;;;-141.48;100.00;69781.59;5225187;28;20029;-60
2022/04/29 04:39:49;;;;;;;14.65;13.18;;;;;;;-141.48;100.00;69781.59;5225055;28;20025;-60
2022/04/29 04:42:20;;;;;;;14.52;13.23;;;;;;;-141.48;100.00;69781.59;5225051;28;20066;-59
2022/04/29 04:44:52;;;;;;;16.42;12.70;;;;;;;-141.48;100.00;69781.59;5223375;28;20043;-61
2022/04/29 04:47:23;;;;;;;11.88;10.50;;;;;;;-141.48;100.00;69781.59;5223819;28;20488;-59
2022/04/29 04:49:54;;;;;;;15.75;12.20;;;;;;;-141.48;100.00;69781.59;5223712;28;20032;-61
2022/04/29 04:52:24;;;;;;;14.75;13.50;;;;;;;-141.48;100.00;69781.59;5223640;28;20109;-61
2022/04/29 04:54:55;;;;;;;13.93;12.90;;;;;;;-141.48;100.00;69781.59;5224555;28;20108;-59
2022/04/29 04:57:25;;;;;;;15.85;13.13;;;;;;;-141.48;100.00;69781.59;5240776;28;20029;-62
2022/04/29 04:59:56;;;;;;;16.05;14.30;;;;;;;-141.48;100.00;69781.59;5223692;28;20025;-60
2022/04/29 05:02:26;;;;;;;17.50;12.25;;;;;;;-141.48;100.00;69781.59;5233745;28;20491;-61
2022/04/29 05:04:57;;;;;;;17.35;14.32;;;;;;;-141.48;100.00;69781.59;5243785;28;20024;-61
2022/04/29 05:07:28;;;;;;;13.75;12.63;;;;;;;-141.48;100.00;69781.59;5227783;28;20048;-61
2022/04/29 05:09:58;;;;;;;14.93;13.38;;;;;;;-141.48;100.00;69781.59;5246883;28;20028;-60
2022/04/29 05:12:29;;;;;;;13.70;12.63;;;;;;;-141.48;100.00;69781.59;5230860;28;20044;-60
2022/04/29 05:15:01;;;;;;;15.35;14.10;;;;;;;-141.48;100.00;69781.59;5248884;28;20028;-57
2022/04/29 05:17:32;;;;;;;22.83;16.13;;;;;;;-141.48;100.00;69781.59;5240819;28;20476;-60
2022/04/29 05:20:03;;;;;;;20.35;17.00;;;;;;;-141.48;100.00;69781.59;5248269;28;20028;-59
2022/04/29 05:22:33;;;;;;;13.80;12.70;;;;;;;-141.48;100.00;69781.59;5248426;28;20021;-58
2022/04/29 05:25:05;;;;;;;16.15;14.52;;;;;;;-141.48;100.00;69781.59;5230956;28;20043;-58
2022/04/29 05:27:36;;;;;;;13.18;12.00;;;;;;;-141.48;100.00;69781.59;5249265;28;20529;-59
2022/04/29 05:30:08;;;;;;;15.48;13.30;;;;;;;-141.48;100.00;69781.59;5247736;28;20087;-58
2022/04/29 05:32:39;;;;;;;13.25;12.05;;;;;;;-141.48;100.00;69781.59;5231017;28;20035;-59
2022/04/29 05:35:10;;;;;;;19.60;12.52;;;;;;;-141.48;100.00;69781.59;5230672;28;20024;-57
2022/04/29 05:37:43;;;;;;;14.70;13.23;;;;;;;-141.48;100.00;69781.59;5247474;28;20039;-57
2022/04/29 05:43:02;;;;;;;13.48;12.15;;;;;;;-141.48;100.00;69781.59;5249106;28;20081;-58
2022/04/29 05:45:33;;;;;;;13.63;12.43;;;;;;;-141.48;100.00;69781.59;5230688;28;20026;-59
2022/04/29 05:48:04;;;;;;;15.73;14.10;;;;;;;-141.48;100.00;69781.59;5246597;28;20502;-59
2022/04/29 05:50:35;;;;;;;16.40;14.25;;;;;;;-141.48;100.00;69781.59;5229580;28;20069;-59
2022/04/29 05:53:05;;;;;;;14.45;13.15;;;;;;;-141.48;100.00;69781.59;5247430;28;20488;-57
2022/04/29 05:55:36;;;;;;;15.07;13.65;;;;;;;-141.48;100.00;69781.59;5230639;28;20489;-58
2022/04/29 05:58:06;;;;;;;12.93;11.88;;;;;;;-141.48;100.00;69781.59;5248641;28;20024;-58
2022/04/29 06:00:37;;;;;;;13.85;12.70;;;;;;;-141.48;100.00;69781.59;5230537;28;20484;-60
2022/04/29 06:03:07;;;;;;;13.00;11.82;;;;;;;-141.48;100.00;69781.59;5247441;28;20107;-56
2022/04/29 06:05:39;;;;;;;14.90;13.35;;;;;;;-141.48;100.00;69781.59;5246879;28;20165;-59
2022/04/29 06:08:09;;;;;;;16.70;12.90;;;;;;;-141.48;100.00;69781.59;5246889;28;20029;-60
2022/04/29 06:10:40;;;;;;;20.85;11.90;;;;;;;-141.48;100.00;69781.59;5229740;28;20032;-58
2022/04/29 06:13:11;;;;;;;12.82;11.43;;;;;;;-141.48;100.00;69781.59;5246388;28;20029;-57
2022/04/29 06:15:41;;;;;;;14.57;12.82;;;;;;;-141.48;100.00;69781.59;5229645;28;20123;-57
2022/04/29 06:18:12;;;;;;;13.90;12.68;;;;;;;-141.48;100.00;69781.59;5246254;28;20029;-58
2022/04/29 06:20:42;;;;;;;17.05;15.63;;;;;;;-141.48;100.00;69781.59;5228966;28;20117;-61
2022/04/29 06:23:12;;;;;;;14.10;13.00;;;;;;;-141.48;100.00;69781.59;5246530;28;20012;-58
2022/04/29 06:25:43;;;;;;;18.30;14.35;;;;;;;-141.48;100.00;69781.59;5246525;28;20032;-59
2022/04/29 06:28:14;;;;;;;14.60;13.20;;;;;;;-141.48;100.00;69781.59;5237030;28;20025;-58
2022/04/29 06:30:45;;;;;;;14.35;12.93;;;;;;;-141.48;100.00;69781.59;5209058;28;20043;-60
2022/04/29 06:33:16;;;;;;;13.43;12.13;;;;;;;-141.48;100.00;69781.59;5208384;28;20017;-58
2022/04/29 06:35:50;;;;;;;16.27;13.75;;;;;;;-141.48;100.00;69781.59;5225298;28;20020;-60
2022/04/29 06:38:20;;;;;;;12.48;11.13;;;;;;;-141.48;100.00;69781.59;5225372;28;20017;-61
2022/04/29 06:40:52;;;;;;;16.55;14.00;;;;;;;-141.48;100.00;69781.59;5225511;28;20024;-58
2022/04/29 06:43:24;;;;;;;15.50;14.30;;;;;;;-141.48;100.00;69781.59;5208465;28;20025;-60
2022/04/29 06:45:54;;;;;;;15.48;11.10;;;;;;;-141.48;100.00;69781.59;5232952;28;20460;-59
2022/04/29 06:48:25;;;;;;;15.52;12.85;;;;;;;-141.48;100.00;69781.59;5224483;28;20064;-58
2022/04/29 06:50:56;;;;;;;13.07;11.93;;;;;;;-141.48;100.00;69781.59;5224982;28;20059;-61
2022/04/29 06:53:26;;;;;;;12.02;11.05;;;;;;;-141.48;100.00;69781.59;5225958;28;20025;-59
2022/04/29 06:55:57;;;;;;;16.10;12.90;;;;;;;-141.48;100.00;69781.59;5225049;28;20451;-61
2022/04/29 06:58:28;;;;;;;20.15;10.98;;;;;;;-141.48;100.00;69781.59;5225126;28;20090;-58
2022/04/29 07:00:58;;;;;;;12.85;11.70;;;;;;;-141.48;100.00;69781.59;5208130;28;20021;-61
2022/04/29 07:03:28;;;;;;;22.98;13.32;;;;;;;-141.48;100.00;69781.59;5228893;28;20048;-61
2022/04/29 07:06:01;;;;;;;18.20;13.25;;;;;;;-141.48;100.00;69781.59;5230183;28;20039;-61
2022/04/29 07:08:31;;;;;;;14.23;11.65;;;;;;;-141.48;100.00;69781.59;5224361;28;20016;-59
2022/04/29 07:11:02;;;;;;;20.90;12.63;;;;;;;-141.48;100.00;69781.59;5207917;28;20027;-60
2022/04/29 07:13:32;;;;;;;16.27;13.20;;;;;;;-141.48;100.00;69781.59;5207639;28;20032;-61
2022/04/29 07:16:04;;;;;;;17.33;12.93;;;;;;;-141.48;100.00;69781.59;5207929;28;20440;-61
2022/04/29 07:18:34;;;;;;;16.83;13.57;;;;;;;-141.48;100.00;69781.59;5224171;28;20028;-60
2022/04/29 07:21:05;;;;;;;15.45;14.02;;;;;;;-141.48;100.00;69781.59;5224514;28;20036;-65
2022/04/29 07:23:36;;;;;;;14.07;12.93;;;;;;;-141.48;100.00;69781.59;5225482;28;20021;-62
2022/04/29 07:26:06;;;;;;;12.43;11.15;;;;;;;-141.48;100.00;69781.59;5224564;28;20148;-60
2022/04/29 07:28:37;;;;;;;16.48;10.90;;;;;;;-141.48;100.00;69781.59;5224542;28;20024;-60
2022/04/29 07:31:07;;;;;;;12.70;11.75;;;;;;;-141.48;100.00;69781.59;5224425;28;20116;-61
2022/04/29 07:33:38;;;;;;;13.65;12.43;;;;;;;-141.48;100.00;69781.59;5224166;28;20025;-60
2022/04/29 07:41:46;;;;;;;16.30;14.95;;;;;;;-141.48;100.00;69781.59;5225803;28;20067;-60
2022/04/29 07:44:16;;;;;;;23.63;11.63;;;;;;;-141.48;100.00;69781.59;5224035;28;20028;-60
2022/04/29 07:46:48;;;;;;;15.93;12.43;;;;;;;-141.48;100.00;69781.59;5224308;28;20111;-62
2022/04/29 07:49:19;;;;;;;12.93;10.68;;;;;;;-141.48;100.00;69781.59;5224191;28;20021;-63
2022/04/29 07:51:49;;;;;;;13.73;12.30;;;;;;;-141.48;100.00;69781.59;5207328;28;20108;-59
2022/04/29 07:54:20;;;;;;;13.68;12.27;;;;;;;-141.48;100.00;69781.59;5207204;28;20048;-59
2022/04/29 07:56:52;;;;;;;12.93;11.73;;;;;;;-141.48;100.00;69781.59;5224188;28;20288;-60
2022/04/29 07:59:23;;;;;;;13.80;12.63;;;;;;;-141.48;100.00;69781.59;5224325;28;20025;-60
2022/04/29 08:01:54;;;;;;;16.48;13.30;;;;;;;-141.48;100.00;69781.59;5207544;28;20021;-61
2022/04/29 08:04:24;;;;;;;15.73;14.15;;;;;;;-141.48;100.00;69781.59;5207088;28;20025;-60
2022/04/29 08:06:55;;;;;;;25.27;12.35;;;;;;;-141.48;100.00;69781.59;5225447;28;20025;-60
2022/04/29 08:09:25;;;;;;;15.50;13.05;;;;;;;-141.48;100.00;69781.59;5207559;28;20029;-62
2022/04/29 08:11:56;;;;;;;16.52;12.73;;;;;;;-141.48;100.00;69781.59;5225395;28;20056;-59
2022/04/29 08:14:27;;;;;;;13.93;12.85;;;;;;;-141.48;100.00;69781.59;5207007;28;20411;-63
2022/04/29 08:16:58;;;;;;;13.38;12.15;;;;;;;-141.48;100.00;69781.59;5223784;28;20493;-59
2022/04/29 08:19:30;;;;;;;15.90;13.93;;;;;;;-141.48;100.00;69781.59;5224081;23;20478;-56
2022/04/29 08:22:01;;;;;;;12.73;11.60;;;;;;;-141.48;100.00;69781.59;5184050;28;20029;-56
2022/04/29 08:24:32;;;;;;;15.55;13.13;;;;;;;-141.48;100.00;69781.59;5183941;28;20080;-55
2022/04/29 08:27:03;;;;;;;13.32;10.80;;;;;;;-141.48;100.00;69781.59;5183585;28;20022;-56
2022/04/29 08:29:34;;;;;;;16.65;13.45;;;;;;;-141.48;100.00;69781.59;5199925;28;20025;-56
2022/04/29 08:32:05;;;;;;;18.02;12.73;;;;;;;-141.48;100.00;69781.59;5184793;28;20025;-56
2022/04/29 08:34:36;;;;;;;14.07;12.98;;;;;;;-141.48;100.00;69781.59;5184585;28;20068;-58
2022/04/29 08:37:06;;;;;;;14.38;13.15;;;;;;;-141.48;100.00;69781.59;5184235;28;20022;-56
2022/04/29 08:39:37;;;;;;;13.38;11.95;;;;;;;-141.48;100.00;69781.59;5198937;28;20425;-55
2022/04/29 08:42:09;;;;;;;13.90;12.45;;;;;;;-141.48;100.00;69781.59;5182693;28;20385;-56
2022/04/29 08:44:42;;;;;;;19.05;14.23;;;;;;;-141.48;100.00;69781.59;5185424;28;20030;-57
2022/04/29 08:47:13;;;;;;;15.65;14.07;;;;;;;-141.48;100.00;69781.59;5186949;28;20030;-55
2022/04/29 08:49:45;;;;;;;16.70;15.05;;;;;;;-141.48;100.00;69781.59;5186576;28;20408;-56
2022/04/29 08:52:16;;;;;;;12.80;11.80;;;;;;;-141.48;100.00;69781.59;5186820;28;20045;-54
2022/04/29 09:00:27;;;;;;;14.30;13.25;;;;;;;-141.48;100.00;69781.59;5187971;28;20044;-57
2022/04/29 09:02:59;;;;;;;14.60;13.13;;;;;;;-141.48;100.00;69781.59;5186666;28;20113;-56
2022/04/29 09:05:31;;;;;;;15.30;13.60;;;;;;;-141.48;100.00;69781.59;5203017;28;20084;-56
2022/04/29 09:08:04;;;;;;;15.48;13.88;;;;;;;-141.48;100.00;69781.59;5187119;28;20022;-57
2022/04/29 09:10:36;;;;;;;15.35;13.93;;;;;;;-141.48;100.00;69781.59;5203279;28;20064;-56
2022/04/29 09:13:11;;;;;;;15.63;12.57;;;;;;;-141.48;100.00;69781.59;5186473;28;20050;-56
2022/04/29 09:15:49;;;;;;;16.27;14.90;;;;;;;-141.48;100.00;69781.59;5186254;28;20394;-55
2022/04/29 09:18:45;;;;;;;15.05;13.07;;;;;;;-141.48;100.00;69781.59;5186281;28;20073;-57
2022/04/29 09:21:27;;;;;;;14.80;13.30;;;;;;;-141.48;100.00;69781.59;5186544;28;20026;-57
2022/04/29 09:24:10;;;;;;;14.85;13.50;;;;;;;-141.48;100.00;69781.59;5186216;28;20033;-55
2022/04/29 09:26:41;;;;;;;20.98;14.10;;;;;;;-141.48;100.00;69781.59;5186665;28;20042;-55
2022/04/29 09:29:17;;;;;;;15.82;14.18;;;;;;;-141.48;100.00;69781.59;5186825;28;20133;-56
2022/04/29 09:31:58;;;;;;;14.88;13.63;;;;;;;-141.48;100.00;69781.59;5185929;28;20512;-56
2022/04/29 09:34:58;;;;;;;18.90;14.52;;;;;;;-141.48;100.00;69781.59;5184447;28;20045;-56
2022/04/29 09:37:33;;;;;;;16.08;14.73;;;;;;;-141.48;100.00;69781.59;5202175;28;20120;-56
2022/04/29 09:40:04;;;;;;;19.77;14.80;;;;;;;-141.48;100.00;69781.59;5186960;28;20045;-57
2022/04/29 09:42:37;;;;;;;14.45;13.25;;;;;;;-141.48;100.00;69781.59;5186084;28;20084;-57
2022/04/29 09:45:17;;;;;;;16.10;14.45;;;;;;;-141.48;100.00;69781.59;5184791;28;20554;-57
2022/04/29 09:47:56;;;;;;;15.98;12.77;;;;;;;-141.48;100.00;69781.59;5186142;28;20038;-59
2022/04/29 09:50:49;;;;;;;18.45;16.50;;;;;;;-141.48;100.00;69781.59;5185544;28;20022;-56
2022/04/29 09:53:23;;;;;;;13.95;12.73;;;;;;;-141.48;100.00;69781.59;5202186;28;20112;-58
2022/04/29 09:56:15;;;;;;;17.52;14.90;;;;;;;-141.48;100.00;69781.59;5184957;28;20022;-58
2022/04/29 09:58:48;;;;;;;17.98;16.27;;;;;;;-141.48;100.00;69781.59;5187482;28;20034;-58
2022/04/29 10:01:20;;;;;;;18.58;15.25;;;;;;;-141.48;100.00;69781.59;5201726;28;20014;-56
2022/04/29 10:03:51;;;;;;;18.95;14.25;;;;;;;-141.48;100.00;69781.59;5201303;28;20034;-56
2022/04/29 10:06:24;;;;;;;15.38;14.05;;;;;;;-141.48;100.00;69781.59;5201521;28;20060;-57
2022/04/29 10:08:58;;;;;;;22.40;17.05;;;;;;;-141.48;100.00;69781.59;5201432;28;20556;-56
2022/04/29 10:11:33;;;;;;;15.23;13.77;;;;;;;-141.48;100.00;69781.59;5201190;28;20029;-58
2022/04/29 10:14:05;;;;;;;15.93;14.25;;;;;;;-141.48;100.00;69781.59;5201012;28;20108;-56
2022/04/29 10:16:38;;;;;;;17.35;15.70;;;;;;;-141.48;100.00;69781.59;5200623;28;20113;-55
2022/04/29 10:22:04;;;;;;;26.85;16.70;;;;;;;-141.48;100.00;69781.59;5185855;28;20510;-56
2022/04/29 10:24:35;;;;;;;15.13;13.65;;;;;;;-141.48;100.00;69781.59;5200504;28;20116;-56
2022/04/29 10:27:06;;;;;;;13.98;12.80;;;;;;;-141.48;100.00;69781.59;5200526;28;20489;-56
2022/04/29 10:29:38;;;;;;;17.70;15.95;;;;;;;-141.48;100.00;69781.59;5200596;28;20045;-58
2022/04/29 10:32:10;;;;;;;18.08;16.02;;;;;;;-141.48;100.00;69781.59;5200296;28;20021;-56
2022/04/29 10:34:40;;;;;;;19.13;15.07;;;;;;;-141.48;100.00;69781.59;5200512;28;20108;-58
2022/04/29 10:37:12;;;;;;;15.32;13.88;;;;;;;-141.48;100.00;69781.59;5201720;28;20541;-56
2022/04/29 10:40:08;;;;;;;17.48;15.25;;;;;;;-141.48;100.00;69781.59;5204905;28;20025;-56
2022/04/29 10:43:07;;;;;;;14.93;13.63;;;;;;;-141.48;100.00;69781.59;5205482;28;20061;-58
2022/04/29 10:46:06;;;;;;;18.42;16.85;;;;;;;-141.48;100.00;69781.59;5206074;28;20021;-58
2022/04/29 10:48:41;;;;;;;15.32;13.63;;;;;;;-141.48;100.00;69781.59;5206299;28;20228;-56
2022/04/29 10:51:17;;;;;;;17.95;15.60;;;;;;;-141.48;100.00;69781.59;5203775;28;20375;-58
2022/04/29 10:53:56;;;;;;;15.23;13.82;;;;;;;-141.48;100.00;69781.59;5200930;28;20040;-58
2022/04/29 10:56:30;;;;;;;19.52;14.18;;;;;;;-141.48;100.00;69781.59;5184459;28;20501;-57
2022/04/29 10:59:03;;;;;;;18.95;13.80;;;;;;;-141.48;100.00;69781.59;5200209;28;20076;-55
2022/04/29 11:01:34;;;;;;;16.40;13.80;;;;;;;-141.48;100.00;69781.59;5200062;28;20429;-57
2022/04/29 11:04:07;;;;;;;20.70;15.90;;;;;;;-141.48;100.00;69781.59;5199612;28;20033;-56
2022/04/29 11:06:41;;;;;;;16.90;14.85;;;;;;;-141.48;100.00;69781.59;5184184;28;20474;-57
2022/04/29 11:09:31;;;;;;;29.25;16.08;;;;;;;-141.48;100.00;69781.59;5199857;28;20038;-57
2022/04/29 11:12:03;;;;;;;15.75;14.23;;;;;;;-141.48;100.00;69781.59;5183692;28;20061;-56
2022/04/29 11:15:12;;;;;;;19.55;16.67;;;;;;;-141.48;100.00;69781.59;5199556;28;20463;-57
2022/04/29 11:17:43;;;;;;;21.70;14.20;;;;;;;-141.48;100.00;69781.59;5199803;28;20460;-58
2022/04/29 11:20:20;;;;;;;16.95;15.30;;;;;;;-141.48;100.00;69781.59;5199551;28;20088;-57
2022/04/29 11:25:58;;;;;;;17.73;16.15;;;;;;;-141.48;100.00;69781.59;5184312;28;20052;-57
2022/04/29 11:28:30;;;;;;;18.75;15.85;;;;;;;-141.48;100.00;69781.59;5199536;28;20168;-56
2022/04/29 11:31:04;;;;;;;16.75;14.98;;;;;;;-141.48;100.00;69781.59;5199770;28;20038;-56
2022/04/29 11:33:35;;;;;;;16.70;15.10;;;;;;;-141.48;100.00;69781.59;5182608;28;20049;-57
2022/04/29 11:36:09;;;;;;;20.38;15.77;;;;;;;-141.48;100.00;69781.59;5182995;28;20390;-56
2022/04/29 11:38:45;;;;;;;15.73;14.20;;;;;;;-141.48;100.00;69781.59;5183396;28;20475;-58
2022/04/29 11:41:21;;;;;;;18.17;14.15;;;;;;;-141.48;100.00;69781.59;5199721;28;20022;-55
2022/04/29 11:43:51;;;;;;;19.42;15.68;;;;;;;-141.48;100.00;69781.59;5199235;28;20025;-56